Time;durP1;ratioP1;P1;durP2;ratioP2;P2;SDS_P1;SDS_P2;PMS_P1;PMS_P2;Temp;Humidity;BMP_temperature;BMP_pressure;BME280_temperature;BME280_humidity;BME280_pressure;Samples;Min_cycle;Max_cycle;Signal;HPM_P1;HPM_P2
2023/06/21 00:00:45;;;;;;;;;;;;;;;19.13;92.98;101118.78;5024126;28;1268;-74
2023/06/21 00:03:11;;;;;;;;;;;;;;;19.07;93.33;101121.09;5022444;28;1632;-76
2023/06/21 00:05:38;;;;;;;;;;;;;;;19.06;93.48;101111.56;5025489;28;1988;-75
2023/06/21 00:08:04;;;;;;;;;;;;;;;19.05;93.53;101102.06;5021526;28;1129;-75
2023/06/21 00:10:30;;;;;;;;;;;;;;;19.06;93.38;101098.44;5022780;28;1313;-74
2023/06/21 00:12:55;;;;;;;;;;;;;;;19.04;93.43;101100.44;5023965;28;1098;-76
2023/06/21 00:15:20;;;;;;;;;;;;;;;19.01;93.61;101106.03;5011879;28;1844;-76
2023/06/21 00:17:46;;;;;;;;;;;;;;;19.02;93.62;101101.56;5019189;28;1192;-75
2023/06/21 00:20:11;;;;;;;;;;;;;;;18.99;93.69;101113.28;5012955;28;1071;-75
2023/06/21 00:22:37;;;;;;;;;;;;;;;18.95;93.75;101117.22;5017900;28;1177;-76
2023/06/21 00:25:02;;;;;;;;;;;;;;;18.97;93.88;101112.59;5023546;28;1906;-75
2023/06/21 00:27:28;;;;;;;;;;;;;;;18.98;93.78;101122.16;5018901;28;1261;-76
2023/06/21 00:29:53;;;;;;;;;;;;;;;18.99;93.64;101122.97;5017453;28;1187;-76
2023/06/21 00:32:18;;;;;;;;;;;;;;;19.01;93.81;101124.41;5019618;28;1247;-76
2023/06/21 00:34:46;;;;;;;;;;;;;;;18.99;93.69;101136.94;5024124;28;1325;-76
2023/06/21 00:37:12;;;;;;;;;;;;;;;18.97;93.75;101141.53;5015632;28;1624;-76
2023/06/21 00:39:37;;;;;;;;;;;;;;;18.92;94.07;101138.59;5021791;28;1123;-76
2023/06/21 00:42:02;;;;;;;;;;;;;;;18.91;93.96;101136.94;5022688;28;1071;-76
2023/06/21 00:44:27;;;;;;;;;;;;;;;18.82;93.92;101144.06;5023293;28;1647;-76
2023/06/21 00:46:53;;;;;;;;;;;;;;;18.79;94.91;101149.66;5024609;28;1890;-76
2023/06/21 00:49:18;;;;;;;;;;;;;;;18.78;94.47;101147.22;5021260;28;1115;-76
2023/06/21 00:51:44;;;;;;;;;;;;;;;18.77;94.31;101150.84;5022891;28;1102;-76
2023/06/21 00:54:16;;;;;;;;;;;;;;;18.73;94.39;101146.91;5023711;28;1252;-76
2023/06/21 00:56:41;;;;;;;;;;;;;;;18.68;94.58;101154.47;5017451;28;1084;-77
2023/06/21 00:59:07;;;;;;;;;;;;;;;18.65;94.71;101147.72;5009487;28;1425;-76
2023/06/21 01:01:34;;;;;;;;;;;;;;;18.65;94.81;101142.47;5014960;28;1448;-76
2023/06/21 01:04:00;;;;;;;;;;;;;;;18.65;94.95;101149.53;5023068;28;1397;-75
2023/06/21 01:06:45;;;;;;;;;;;;;;;18.64;94.94;101140.00;5017562;28;1898;-76
2023/06/21 01:09:13;;;;;;;;;;;;;;;18.63;95.09;101151.50;5021288;28;1226;-76
2023/06/21 01:11:50;;;;;;;;;;;;;;;18.55;95.27;101153.16;5017633;28;1437;-76
2023/06/21 01:14:35;;;;;;;;;;;;;;;18.53;95.43;101155.16;5014548;28;966;-77
2023/06/21 01:17:01;;;;;;;;;;;;;;;18.51;95.68;101156.28;5020858;28;1114;-76
2023/06/21 01:19:32;;;;;;;;;;;;;;;18.48;95.91;101156.66;5015872;28;1322;-77
2023/06/21 01:21:59;;;;;;;;;;;;;;;18.46;95.96;101164.69;5019497;28;1306;-76
2023/06/21 01:24:37;;;;;;;;;;;;;;;18.43;96.04;101165.03;5021578;28;1141;-77
2023/06/21 01:27:11;;;;;;;;;;;;;;;18.42;96.27;101167.84;5016767;28;1894;-76
2023/06/21 01:29:39;;;;;;;;;;;;;;;18.41;96.26;101164.38;5023410;28;1283;-76
2023/06/21 01:32:05;;;;;;;;;;;;;;;18.37;96.46;101170.13;5024485;28;1097;-76
2023/06/21 01:34:32;;;;;;;;;;;;;;;18.37;96.52;101168.31;5024878;28;1157;-76
2023/06/21 01:36:58;;;;;;;;;;;;;;;18.33;96.75;101163.56;5022089;28;1263;-76
2023/06/21 01:39:29;;;;;;;;;;;;;;;18.33;96.65;101168.81;5021043;28;1350;-76
2023/06/21 01:41:54;;;;;;;;;;;;;;;18.31;96.92;101166.38;5020061;28;1220;-77
2023/06/21 01:44:20;;;;;;;;;;;;;;;18.31;96.92;101175.06;5023058;28;1232;-76
2023/06/21 01:46:47;;;;;;;;;;;;;;;18.34;97.03;101173.09;5025292;28;1894;-76
2023/06/21 01:49:14;;;;;;;;;;;;;;;18.33;97.43;101174.91;5021699;28;1454;-76
2023/06/21 01:51:40;;;;;;;;;;;;;;;18.30;97.04;101170.81;5019349;28;1402;-76
2023/06/21 01:54:06;;;;;;;;;;;;;;;18.28;97.27;101172.75;5021683;28;1178;-76
2023/06/21 01:56:33;;;;;;;;;;;;;;;18.27;97.36;101170.31;5011883;28;1246;-76
2023/06/21 01:58:59;;;;;;;;;;;;;;;18.25;97.60;101169.66;5019206;28;1505;-76
2023/06/21 02:01:26;;;;;;;;;;;;;;;18.27;97.63;101181.63;5018217;28;1112;-76
2023/06/21 02:03:53;;;;;;;;;;;;;;;18.27;97.43;101181.63;5015559;28;1298;-76
2023/06/21 02:06:23;;;;;;;;;;;;;;;18.27;97.67;101183.44;5023917;28;1897;-76
2023/06/21 02:08:49;;;;;;;;;;;;;;;18.24;97.55;101181.16;5026922;28;1131;-76
2023/06/21 02:11:15;;;;;;;;;;;;;;;18.24;97.91;101186.41;5026396;28;1111;-76
2023/06/21 02:13:40;;;;;;;;;;;;;;;18.27;97.76;101186.06;5015713;28;1274;-76
2023/06/21 02:16:06;;;;;;;;;;;;;;;18.27;97.94;101199.19;5020629;28;1380;-76
2023/06/21 02:18:31;;;;;;;;;;;;;;;18.27;97.79;101194.75;5024448;28;1017;-76
2023/06/21 02:20:57;;;;;;;;;;;;;;;18.27;97.83;101199.19;5021002;28;1460;-76
2023/06/21 02:23:23;;;;;;;;;;;;;;;18.25;97.93;101199.38;5024976;28;915;-76
2023/06/21 02:25:48;;;;;;;;;;;;;;;18.22;98.05;101204.13;5024612;28;1918;-76
2023/06/21 02:28:13;;;;;;;;;;;;;;;18.18;98.20;101213.31;5015564;28;1450;-76
2023/06/21 02:30:39;;;;;;;;;;;;;;;18.16;98.26;101215.28;5019906;28;1382;-76
2023/06/21 02:33:04;;;;;;;;;;;;;;;18.16;98.21;101204.78;5037208;28;1378;-76
2023/06/21 02:35:29;;;;;;;;;;;;;;;18.16;98.36;101212.66;5021531;28;1029;-76
2023/06/21 02:37:55;;;;;;;;;;;;;;;18.14;98.32;101207.59;5022076;28;1315;-76
2023/06/21 02:40:20;;;;;;;;;;;;;;;18.15;98.64;101211.03;5028314;28;1015;-76
2023/06/21 02:42:46;;;;;;;;;;;;;;;18.16;98.53;101210.84;5027208;28;1098;-77
2023/06/21 02:45:11;;;;;;;;;;;;;;;18.17;98.46;101222.16;5024984;28;1968;-76
2023/06/21 02:47:36;;;;;;;;;;;;;;;18.18;98.67;101223.81;5022360;28;1383;-76
2023/06/21 02:50:02;;;;;;;;;;;;;;;18.16;98.41;101231.03;5025179;28;1277;-76
2023/06/21 02:52:27;;;;;;;;;;;;;;;18.15;98.87;101229.41;5016552;28;1076;-76
2023/06/21 02:54:53;;;;;;;;;;;;;;;18.14;98.49;101225.13;5025086;28;1302;-76
2023/06/21 02:57:18;;;;;;;;;;;;;;;18.11;98.68;101222.84;5021663;28;1335;-76
2023/06/21 02:59:43;;;;;;;;;;;;;;;18.09;98.65;101224.81;5021900;28;1223;-75
2023/06/21 03:02:09;;;;;;;;;;;;;;;18.06;98.62;101225.94;5019360;28;1169;-76
2023/06/21 03:04:35;;;;;;;;;;;;;;;18.05;98.76;101230.38;5027233;28;1186;-76
2023/06/21 03:07:01;;;;;;;;;;;;;;;18.06;98.85;101231.19;5023605;28;1902;-76
2023/06/21 03:09:26;;;;;;;;;;;;;;;18.10;99.09;101242.19;5023601;28;1226;-76
2023/06/21 03:11:51;;;;;;;;;;;;;;;18.14;99.02;101243.53;5026789;28;1072;-76
2023/06/21 03:14:17;;;;;;;;;;;;;;;18.14;98.98;101249.59;5023421;28;1789;-76
2023/06/21 03:16:44;;;;;;;;;;;;;;;18.17;98.91;101253.69;5019216;28;1292;-76
2023/06/21 03:19:09;;;;;;;;;;;;;;;18.20;99.02;101259.44;5024188;28;1023;-76
2023/06/21 03:21:34;;;;;;;;;;;;;;;18.23;98.83;101263.53;5021313;28;1099;-76
2023/06/21 03:24:01;;;;;;;;;;;;;;;18.21;98.43;101266.31;5025798;28;1393;-75
2023/06/21 03:26:26;;;;;;;;;;;;;;;18.21;98.76;101265.50;5021309;28;1898;-76
2023/06/21 03:28:52;;;;;;;;;;;;;;;18.18;98.37;101285.03;5024041;28;1188;-76
2023/06/21 03:31:19;;;;;;;;;;;;;;;18.14;98.71;101290.78;5026667;28;1259;-76
2023/06/21 03:33:45;;;;;;;;;;;;;;;18.14;98.81;101286.34;5021257;28;1413;-76
2023/06/21 03:36:10;;;;;;;;;;;;;;;18.18;98.96;101292.06;5022380;28;1027;-76
2023/06/21 03:38:36;;;;;;;;;;;;;;;18.19;98.80;101283.22;5025826;28;1038;-76
2023/06/21 03:41:01;;;;;;;;;;;;;;;18.19;98.88;101289.31;5023526;28;1268;-76
2023/06/21 03:43:26;;;;;;;;;;;;;;;18.21;98.86;101291.75;5027578;28;1117;-77
2023/06/21 03:45:51;;;;;;;;;;;;;;;18.22;98.79;101296.00;5019885;28;1967;-75
2023/06/21 03:48:17;;;;;;;;;;;;;;;18.22;98.95;101288.97;5020988;28;1113;-76
2023/06/21 03:50:42;;;;;;;;;;;;;;;18.21;98.76;101286.50;5024809;28;1410;-76
2023/06/21 03:53:07;;;;;;;;;;;;;;;18.21;98.57;101297.00;5016696;28;1501;-75
2023/06/21 03:55:35;;;;;;;;;;;;;;;18.20;98.80;101301.44;5035719;28;1168;-76
2023/06/21 03:58:00;;;;;;;;;;;;;;;18.23;98.66;101300.28;5010658;28;1075;-76
2023/06/21 04:00:25;;;;;;;;;;;;;;;18.22;98.76;101298.63;5019747;28;1361;-75
2023/06/21 04:02:51;;;;;;;;;;;;;;;18.23;98.74;101290.59;5011670;28;1321;-75
2023/06/21 04:05:16;;;;;;;;;;;;;;;18.25;98.77;101300.94;5016238;28;1955;-76
2023/06/21 04:07:41;;;;;;;;;;;;;;;18.20;98.58;101303.25;5017816;28;1500;-75
2023/06/21 04:10:08;;;;;;;;;;;;;;;18.13;98.78;101304.88;5018275;28;1597;-76
2023/06/21 04:12:34;;;;;;;;;;;;;;;18.13;98.63;101315.38;5020026;28;1463;-75
2023/06/21 04:15:03;;;;;;;;;;;;;;;18.12;99.17;101311.09;5025686;28;1343;-75
2023/06/21 04:17:28;;;;;;;;;;;;;;;18.10;99.28;101310.44;5020177;28;1282;-76
2023/06/21 04:19:54;;;;;;;;;;;;;;;18.10;99.13;101315.69;5027752;28;1150;-76
2023/06/21 04:22:21;;;;;;;;;;;;;;;18.08;99.35;101313.25;5024531;28;1088;-75
2023/06/21 04:24:46;;;;;;;;;;;;;;;18.07;99.62;101316.84;5021205;28;1995;-76
2023/06/21 04:27:12;;;;;;;;;;;;;;;18.05;99.51;101308.31;5009486;28;1952;-76
2023/06/21 04:29:40;;;;;;;;;;;;;;;18.07;99.87;101310.78;5016483;28;1532;-75
2023/06/21 04:32:05;;;;;;;;;;;;;;;18.09;99.78;101308.81;5026215;28;1091;-75
2023/06/21 04:34:33;;;;;;;;;;;;;;;18.13;100.00;101310.13;5023795;28;1318;-76
2023/06/21 04:36:58;;;;;;;;;;;;;;;18.18;100.00;101313.06;5018393;28;1362;-75
2023/06/21 04:39:23;;;;;;;;;;;;;;;18.24;100.00;101322.94;5022393;28;1154;-75
2023/06/21 04:41:51;;;;;;;;;;;;;;;18.29;100.00;101320.63;5022397;28;1092;-75
2023/06/21 04:44:17;;;;;;;;;;;;;;;18.31;100.00;101334.44;5026041;28;1302;-76
2023/06/21 04:46:42;;;;;;;;;;;;;;;18.34;100.00;101336.72;5021270;28;1898;-76
2023/06/21 04:49:07;;;;;;;;;;;;;;;18.36;100.00;101337.41;5029725;28;1161;-76
2023/06/21 04:51:33;;;;;;;;;;;;;;;18.37;100.00;101332.97;5020449;28;1155;-75
2023/06/21 04:53:59;;;;;;;;;;;;;;;18.36;100.00;101337.41;5025973;28;1532;-75
2023/06/21 04:56:25;;;;;;;;;;;;;;;18.34;100.00;101339.34;5020115;28;1148;-76
2023/06/21 04:58:50;;;;;;;;;;;;;;;18.36;100.00;101326.91;5023841;28;1370;-75
2023/06/21 05:01:16;;;;;;;;;;;;;;;18.41;100.00;101335.09;5012050;28;1442;-74
2023/06/21 05:03:41;;;;;;;;;;;;;;;18.41;100.00;101340.34;5010325;28;1231;-74
2023/06/21 05:06:07;;;;;;;;;;;;;;;18.45;100.00;101346.91;5013226;28;1905;-74
2023/06/21 05:08:32;;;;;;;;;;;;;;;18.48;100.00;101341.34;5017245;28;1358;-74
2023/06/21 05:10:57;;;;;;;;;;;;;;;18.53;100.00;101343.47;5016089;28;991;-75
2023/06/21 05:13:22;;;;;;;;;;;;;;;18.56;100.00;101351.00;5019051;28;1334;-75
2023/06/21 05:15:48;;;;;;;;;;;;;;;18.58;100.00;101357.75;5018577;28;1317;-74
2023/06/21 05:18:13;;;;;;;;;;;;;;;18.62;100.00;101357.41;5019950;28;1265;-74
2023/06/21 05:20:38;;;;;;;;;;;;;;;18.63;100.00;101364.31;5023993;28;1386;-74
2023/06/21 05:23:03;;;;;;;;;;;;;;;18.64;100.00;101355.44;5021538;28;1339;-75
2023/06/21 05:25:30;;;;;;;;;;;;;;;18.64;100.00;101350.19;5019634;28;1948;-74
2023/06/21 05:27:55;;;;;;;;;;;;;;;18.64;100.00;101358.06;5017385;28;1294;-74
2023/06/21 05:30:20;;;;;;;;;;;;;;;18.65;100.00;101357.91;5017604;28;1244;-75
2023/06/21 05:32:45;;;;;;;;;;;;;;;18.71;100.00;101366.97;5021700;28;1301;-75
2023/06/21 05:35:11;;;;;;;;;;;;;;;18.72;100.00;101363.38;5020886;28;1591;-74
2023/06/21 05:37:36;;;;;;;;;;;;;;;18.79;100.00;101374.84;5026092;28;1258;-74
2023/06/21 05:40:02;;;;;;;;;;;;;;;18.84;100.00;101362.03;5023668;28;1147;-74
2023/06/21 05:42:28;;;;;;;;;;;;;;;18.86;100.00;101372.38;5017101;28;1461;-74
2023/06/21 05:44:53;;;;;;;;;;;;;;;18.88;100.00;101381.75;5023239;28;1902;-74
2023/06/21 05:47:18;;;;;;;;;;;;;;;18.94;100.00;101394.22;5027742;28;1082;-74
2023/06/21 05:49:43;;;;;;;;;;;;;;;18.96;100.00;101397.50;5021005;28;1070;-75
2023/06/21 05:52:08;;;;;;;;;;;;;;;18.97;100.00;101399.13;5024738;28;1263;-74
2023/06/21 05:54:34;;;;;;;;;;;;;;;19.02;100.00;101396.03;5024621;28;1702;-74
2023/06/21 05:56:59;;;;;;;;;;;;;;;19.03;100.00;101393.22;5024668;28;1090;-74
2023/06/21 05:59:24;;;;;;;;;;;;;;;19.07;100.00;101404.22;5013295;28;1048;-74
2023/06/21 06:01:49;;;;;;;;;;;;;;;19.09;100.00;101402.25;5016556;28;1357;-74
2023/06/21 06:04:14;;;;;;;;;;;;;;;19.13;100.00;101403.56;5016439;28;1347;-74
2023/06/21 06:06:41;;;;;;;;;;;;;;;19.18;100.00;101405.69;5019204;28;1957;-74
2023/06/21 06:09:10;;;;;;;;;;;;;;;19.25;100.00;101404.03;5041716;28;1252;-74
2023/06/21 06:11:35;;;;;;;;;;;;;;;19.31;100.00;101413.88;5020414;28;1280;-74
2023/06/21 06:14:01;;;;;;;;;;;;;;;19.33;100.00;101415.38;5017981;28;1079;-75
2023/06/21 06:16:26;;;;;;;;;;;;;;;19.35;100.00;101417.81;5022080;28;1247;-75
2023/06/21 06:18:51;;;;;;;;;;;;;;;19.39;100.00;101424.41;5021772;28;1203;-75
2023/06/21 06:21:21;;;;;;;;;;;;;;;19.44;100.00;101422.09;5020378;28;1322;-74
2023/06/21 06:23:46;;;;;;;;;;;;;;;19.44;100.00;101427.34;5021139;28;1078;-74
2023/06/21 06:26:12;;;;;;;;;;;;;;;19.46;100.00;101435.06;5018308;28;1981;-75
2023/06/21 06:28:37;;;;;;;;;;;;;;;19.50;100.00;101441.63;5017663;28;1277;-75
2023/06/21 06:31:02;;;;;;;;;;;;;;;19.47;100.00;101437.53;5020680;28;1250;-74
2023/06/21 06:33:27;;;;;;;;;;;;;;;19.48;99.68;101439.16;5020767;28;1215;-74
2023/06/21 06:35:52;;;;;;;;;;;;;;;19.50;99.79;101442.47;5024854;28;1163;-75
2023/06/21 06:38:18;;;;;;;;;;;;;;;19.51;99.57;101443.28;5024059;28;1139;-74
2023/06/21 06:40:43;;;;;;;;;;;;;;;19.53;99.45;101451.81;5020007;28;1401;-75
2023/06/21 06:43:08;;;;;;;;;;;;;;;19.53;99.36;101447.38;5027627;28;978;-74
2023/06/21 06:45:34;;;;;;;;;;;;;;;19.53;99.42;101450.00;5023157;28;1954;-75
2023/06/21 06:47:59;;;;;;;;;;;;;;;19.52;99.00;101451.00;5025949;28;1270;-75
2023/06/21 06:50:24;;;;;;;;;;;;;;;19.57;99.24;101459.22;5026010;28;1476;-75
2023/06/21 06:52:49;;;;;;;;;;;;;;;19.63;98.83;101463.81;5022941;28;1274;-74
2023/06/21 06:55:15;;;;;;;;;;;;;;;19.71;98.87;101470.03;5030411;28;1098;-74
2023/06/21 06:57:40;;;;;;;;;;;;;;;19.74;98.49;101475.00;5021295;28;1364;-76
2023/06/21 07:00:11;;;;;;;;;;;;;;;19.77;98.46;101479.91;5019085;28;1116;-74
2023/06/21 07:02:36;;;;;;;;;;;;;;;19.80;98.49;101479.56;5023694;28;1207;-75
2023/06/21 07:05:01;;;;;;;;;;;;;;;19.76;97.65;101483.53;5023196;28;1902;-76
2023/06/21 07:07:27;;;;;;;;;;;;;;;19.76;97.46;101483.53;5025183;28;1300;-75
2023/06/21 07:09:52;;;;;;;;;;;;;;;19.72;97.40;101482.22;5022272;28;1291;-74
2023/06/21 07:12:17;;;;;;;;;;;;;;;19.73;97.67;101491.78;5024032;28;1287;-74
2023/06/21 07:14:42;;;;;;;;;;;;;;;19.82;97.44;101482.84;5023399;28;1189;-75
2023/06/21 07:17:07;;;;;;;;;;;;;;;19.93;97.12;101487.75;5017682;28;1377;-76
2023/06/21 07:19:33;;;;;;;;;;;;;;;19.91;96.82;101487.09;5017496;28;1592;-74
2023/06/21 07:21:58;;;;;;;;;;;;;;;19.97;97.09;101491.69;5021299;28;1256;-74
2023/06/21 07:24:23;;;;;;;;;;;;;;;20.03;96.74;101490.19;5020926;28;1106;-74
2023/06/21 07:26:48;;;;;;;;;;;;;;;20.15;96.30;101494.91;5017880;28;1898;-75
2023/06/21 07:29:14;;;;;;;;;;;;;;;20.16;95.98;101486.00;5041152;28;1474;-75
2023/06/21 07:31:39;;;;;;;;;;;;;;;20.27;96.16;101491.88;5021366;28;1354;-75
2023/06/21 07:34:07;;;;;;;;;;;;;;;20.37;95.51;101497.75;5024964;28;1030;-74
2023/06/21 07:36:32;;;;;;;;;;;;;;;20.45;95.21;101497.72;5019161;28;1117;-76
2023/06/21 07:38:57;;;;;;;;;;;;;;;20.54;94.67;101501.16;5023455;28;1648;-74
2023/06/21 07:41:22;;;;;;;;;;;;;;;20.63;94.48;101498.28;5021835;28;1042;-75
2023/06/21 07:43:48;;;;;;;;;;;;;;;20.73;93.98;101497.25;5026388;28;1361;-75
2023/06/21 07:46:13;;;;;;;;;;;;;;;20.82;93.80;101504.13;5024629;28;1956;-74
2023/06/21 07:48:38;;;;;;;;;;;;;;;20.83;93.18;101503.09;5019764;28;1393;-74
2023/06/21 07:51:03;;;;;;;;;;;;;;;20.82;93.26;101506.75;5021429;28;1335;-75
2023/06/21 07:53:29;;;;;;;;;;;;;;;20.89;93.21;101507.69;5021225;28;1752;-74
2023/06/21 07:55:54;;;;;;;;;;;;;;;20.93;92.63;101506.31;5010324;28;1659;-75
2023/06/21 07:58:19;;;;;;;;;;;;;;;21.05;92.26;101502.28;5023092;28;1370;-74
2023/06/21 08:00:44;;;;;;;;;;;;;;;21.06;90.26;101508.38;5017471;28;1260;-75
2023/06/21 08:03:10;;;;;;;;;;;;;;;21.04;90.30;101511.16;5018347;28;1833;-74
2023/06/21 08:05:35;;;;;;;;;;;;;;;21.08;90.11;101511.66;5013149;28;1930;-75
2023/06/21 08:08:01;;;;;;;;;;;;;;;21.15;90.15;101517.84;5017167;28;1463;-74
2023/06/21 08:10:27;;;;;;;;;;;;;;;21.29;89.42;101518.91;5021727;28;1479;-74
2023/06/21 08:12:52;;;;;;;;;;;;;;;21.28;89.70;101522.53;5023305;28;1216;-74
2023/06/21 08:15:18;;;;;;;;;;;;;;;21.37;89.27;101517.03;5013877;28;1567;-74
2023/06/21 08:17:43;;;;;;;;;;;;;;;21.45;89.24;101518.78;5019723;28;1980;-74
2023/06/21 08:20:08;;;;;;;;;;;;;;;21.56;88.53;101520.13;5040187;28;1484;-74
2023/06/21 08:22:34;;;;;;;;;;;;;;;21.58;86.93;101529.53;5021546;28;1486;-75
2023/06/21 08:24:59;;;;;;;;;;;;;;;21.58;87.31;101529.53;5019612;28;1894;-74
2023/06/21 08:27:24;;;;;;;;;;;;;;;21.70;86.91;101527.28;5020811;28;1341;-74
2023/06/21 08:29:49;;;;;;;;;;;;;;;21.85;85.68;101530.75;5024648;28;1347;-74
2023/06/21 08:32:15;;;;;;;;;;;;;;;21.84;85.62;101533.53;5007911;28;1937;-74
2023/06/21 08:34:41;;;;;;;;;;;;;;;21.88;85.01;101529.56;5019510;28;2223;-74
2023/06/21 08:37:06;;;;;;;;;;;;;;;21.92;84.89;101541.41;5014385;28;2006;-74
2023/06/21 08:39:31;;;;;;;;;;;;;;;22.00;83.94;101538.66;5023253;28;1217;-74
2023/06/21 08:41:56;;;;;;;;;;;;;;;22.03;83.83;101540.94;5039867;28;1393;-73
2023/06/21 08:44:22;;;;;;;;;;;;;;;22.13;82.76;101544.13;5020798;28;1202;-74
2023/06/21 08:46:47;;;;;;;;;;;;;;;22.16;82.46;101542.97;5036683;28;1906;-74
2023/06/21 08:49:16;;;;;;;;;;;;;;;22.25;82.54;101542.69;5023513;28;1196;-74
2023/06/21 08:51:43;;;;;;;;;;;;;;;22.42;81.29;101537.16;5038496;28;1316;-74
2023/06/21 08:54:08;;;;;;;;;;;;;;;22.44;81.42;101545.75;5022577;28;1502;-74
2023/06/21 08:56:37;;;;;;;;;;;;;;;22.51;80.99;101546.63;5019996;28;1477;-74
2023/06/21 08:59:05;;;;;;;;;;;;;;;22.61;79.83;101546.34;5024170;28;1515;-74
2023/06/21 09:01:34;;;;;;;;;;;;;;;22.64;79.54;101552.06;5018377;28;1330;-74
2023/06/21 09:04:02;;;;;;;;;;;;;;;22.64;74.71;101557.34;5014258;28;1070;-74
2023/06/21 09:06:28;;;;;;;;;;;;;;;22.63;75.46;101552.25;5010253;28;1906;-73
2023/06/21 09:08:53;;;;;;;;;;;;;;;22.58;75.11;101558.09;5015429;28;1278;-73
2023/06/21 09:11:21;;;;;;;;;;;;;;;22.71;75.35;101555.63;5020070;28;1314;-74
2023/06/21 09:13:47;;;;;;;;;;;;;;;22.87;74.09;101549.28;5016976;28;1033;-73
2023/06/21 09:16:12;;;;;;;;;;;;;;;22.88;74.09;101558.03;5033691;23;1668;-73
2023/06/21 09:18:39;;;;;;;;;;;;;;;22.94;74.79;101562.56;5012340;28;1334;-74
2023/06/21 09:21:05;;;;;;;;;;;;;;;23.16;72.83;101566.84;5014332;28;1392;-74
2023/06/21 09:23:30;;;;;;;;;;;;;;;23.13;72.81;101567.25;5007680;28;1145;-74
2023/06/21 09:25:55;;;;;;;;;;;;;;;23.18;72.96;101569.34;5003169;28;1918;-75
2023/06/21 09:28:21;;;;;;;;;;;;;;;23.27;72.96;101569.00;5013102;28;1345;-75
2023/06/21 09:30:47;;;;;;;;;;;;;;;23.40;72.90;101572.75;5010915;28;1047;-74
2023/06/21 09:33:12;;;;;;;;;;;;;;;23.51;72.80;101569.59;5037818;28;1299;-74
2023/06/21 09:35:38;;;;;;;;;;;;;;;23.55;71.92;101570.84;5004952;28;1159;-75
2023/06/21 09:38:22;;;;;;;;;;;;;;;23.59;71.57;101577.41;5002341;28;1280;-75
2023/06/21 09:40:47;;;;;;;;;;;;;;;23.74;71.58;101580.81;5009698;28;1050;-74
2023/06/21 09:43:13;;;;;;;;;;;;;;;23.87;70.55;101574.78;5005958;28;1144;-75
2023/06/21 09:45:38;;;;;;;;;;;;;;;23.98;69.83;101581.38;5009961;28;1879;-74
2023/06/21 09:48:03;;;;;;;;;;;;;;;24.02;69.96;101582.59;5006220;28;1470;-74
2023/06/21 09:50:32;;;;;;;;;;;;;;;24.03;69.47;101594.84;5011211;28;1268;-75
2023/06/21 09:52:57;;;;;;;;;;;;;;;24.10;69.33;101593.88;5006311;28;1257;-74
2023/06/21 09:55:24;;;;;;;;;;;;;;;24.15;69.32;101590.63;5008581;28;1225;-74
2023/06/21 09:57:51;;;;;;;;;;;;;;;24.33;68.84;101596.22;5004650;28;1287;-74
2023/06/21 10:00:17;;;;;;;;;;;;;;;24.42;68.19;101596.88;5004573;28;1067;-74
2023/06/21 10:02:42;;;;;;;;;;;;;;;24.52;67.87;101599.19;5011230;28;1416;-74
2023/06/21 10:05:15;;;;;;;;;;;;;;;24.57;67.23;101599.41;5011887;28;1898;-75
2023/06/21 10:07:47;;;;;;;;;;;;;;;24.53;66.34;101595.50;4999829;28;1447;-74
2023/06/21 10:10:13;;;;;;;;;;;;;;;24.50;65.37;101601.22;5017516;28;1360;-74
2023/06/21 10:12:58;;;;;;;;;;;;;;;24.32;66.23;101605.19;5013893;28;1427;-74
2023/06/21 10:15:24;;;;;;;;;;;;;;;24.41;65.74;101607.69;5006708;28;1201;-74
2023/06/21 10:17:49;;;;;;;;;;;;;;;24.53;64.72;101600.81;5008074;28;1283;-74
2023/06/21 10:20:14;;;;;;;;;;;;;;;24.46;65.33;101605.28;5013172;28;967;-75
2023/06/21 10:22:43;;;;;;;;;;;;;;;24.47;64.26;101596.28;5016185;28;1119;-75
2023/06/21 10:25:09;;;;;;;;;;;;;;;24.49;63.31;101605.72;5011764;28;1911;-75
2023/06/21 10:27:35;;;;;;;;;;;;;;;24.54;64.31;101607.75;5009954;28;1414;-75
2023/06/21 10:30:01;;;;;;;;;;;;;;;24.65;63.78;101609.81;5009765;28;1153;-74
2023/06/21 10:32:27;;;;;;;;;;;;;;;24.73;62.53;101612.31;5017468;28;1145;-75
2023/06/21 10:34:56;;;;;;;;;;;;;;;24.63;62.44;101617.19;5004051;28;1052;-75
2023/06/21 10:37:48;;;;;;;;;;;;;;;24.66;64.07;101622.09;5013796;28;1283;-74
2023/06/21 10:40:14;;;;;;;;;;;;;;;24.84;62.81;101635.63;5012476;28;1394;-75
2023/06/21 10:42:39;;;;;;;;;;;;;;;24.82;59.36;101632.31;5014873;28;1062;-75
2023/06/21 10:45:05;;;;;;;;;;;;;;;24.76;59.27;101637.63;5007731;28;1211;-75
2023/06/21 10:47:31;;;;;;;;;;;;;;;24.77;59.47;101637.41;5014471;28;1382;-76
2023/06/21 10:50:00;;;;;;;;;;;;;;;24.73;59.75;101632.72;5019113;28;1042;-75
2023/06/21 10:52:26;;;;;;;;;;;;;;;24.75;61.01;101636.81;5009080;28;1093;-75
2023/06/21 10:54:55;;;;;;;;;;;;;;;24.87;60.65;101632.56;5008327;28;1313;-75
2023/06/21 10:57:21;;;;;;;;;;;;;;;25.07;59.83;101634.47;5006098;28;1338;-75
2023/06/21 10:59:46;;;;;;;;;;;;;;;25.19;60.50;101638.19;5025344;28;1156;-75
2023/06/21 11:02:12;;;;;;;;;;;;;;;25.20;60.43;101639.81;5008898;28;1233;-75
2023/06/21 11:05:00;;;;;;;;;;;;;;;25.27;60.41;101650.44;5016040;28;1534;-75
2023/06/21 11:07:25;;;;;;;;;;;;;;;25.42;59.99;101643.91;5010280;28;1914;-75
2023/06/21 11:09:52;;;;;;;;;;;;;;;25.51;59.76;101647.19;5023149;28;1139;-76
2023/06/21 11:12:17;;;;;;;;;;;;;;;25.50;58.38;101653.53;5012297;28;1305;-75
2023/06/21 11:14:43;;;;;;;;;;;;;;;25.55;56.89;101652.91;5018816;28;1295;-75
2023/06/21 11:17:10;;;;;;;;;;;;;;;25.54;58.53;101640.66;5041188;28;1194;-76
2023/06/21 11:19:37;;;;;;;;;;;;;;;25.66;58.29;101647.00;5011831;28;1059;-76
2023/06/21 11:22:21;;;;;;;;;;;;;;;25.80;58.24;101651.28;5008667;28;1241;-76
2023/06/21 11:24:57;;;;;;;;;;;;;;;25.90;57.81;101643.72;5010490;28;1283;-76
2023/06/21 11:27:25;;;;;;;;;;;;;;;26.06;57.52;101644.31;5007469;28;1890;-77
2023/06/21 11:29:59;;;;;;;;;;;;;;;26.09;55.96;101647.41;5013427;28;1135;-76
2023/06/21 11:32:27;;;;;;;;;;;;;;;26.04;56.35;101647.19;5007830;28;1217;-76
2023/06/21 11:34:56;;;;;;;;;;;;;;;25.78;55.49;101648.03;5000103;28;1340;-76
2023/06/21 11:37:35;;;;;;;;;;;;;;;25.62;55.50;101648.41;5006625;28;1378;-78
2023/06/21 11:40:02;;;;;;;;;;;;;;;25.62;54.97;101648.41;5007345;28;1447;-75
2023/06/21 11:42:32;;;;;;;;;;;;;;;25.58;55.13;101652.53;5007705;28;1382;-76
2023/06/21 11:45:15;;;;;;;;;;;;;;;25.70;55.71;101650.88;5002586;28;1286;-76
2023/06/21 11:47:42;;;;;;;;;;;;;;;25.81;52.81;101652.94;5009903;28;1087;-76
2023/06/21 11:50:13;;;;;;;;;;;;;;;25.71;53.58;101651.69;5005982;28;1043;-76
2023/06/21 11:52:38;;;;;;;;;;;;;;;25.80;52.96;101653.94;5003614;28;1264;-76
2023/06/21 11:55:12;;;;;;;;;;;;;;;25.77;53.27;101657.03;5004793;28;1137;-76
2023/06/21 11:57:44;;;;;;;;;;;;;;;25.78;54.25;101658.66;5033319;28;1184;-76
2023/06/21 12:00:09;;;;;;;;;;;;;;;25.89;53.90;101658.03;5004963;28;1454;-75
2023/06/21 12:02:34;;;;;;;;;;;;;;;26.04;54.21;101657.00;5005636;28;1260;-76
2023/06/21 12:05:00;;;;;;;;;;;;;;;26.15;54.90;101657.19;5003052;28;1352;-76
2023/06/21 12:07:25;;;;;;;;;;;;;;;26.33;53.10;101650.41;5009348;28;1969;-76
2023/06/21 12:09:50;;;;;;;;;;;;;;;26.41;53.37;101658.16;5018366;28;1353;-76
2023/06/21 12:12:16;;;;;;;;;;;;;;;26.36;52.93;101661.41;5018735;28;1413;-77
2023/06/21 12:14:41;;;;;;;;;;;;;;;26.27;51.91;101668.00;5011214;28;1590;-75
2023/06/21 12:17:07;;;;;;;;;;;;;;;26.17;52.56;101662.28;5013529;28;1326;-76
2023/06/21 12:19:32;;;;;;;;;;;;;;;26.08;51.20;101674.16;5011866;28;1261;-77
2023/06/21 12:22:02;;;;;;;;;;;;;;;25.99;50.99;101664.78;5039802;28;1262;-78
2023/06/21 12:24:27;;;;;;;;;;;;;;;25.88;52.79;101669.69;5007504;28;1135;-76
2023/06/21 12:26:55;;;;;;;;;;;;;;;26.09;52.80;101667.81;5003119;28;1894;-77
2023/06/21 12:29:21;;;;;;;;;;;;;;;26.21;52.66;101663.53;5014571;28;1466;-77
2023/06/21 12:31:46;;;;;;;;;;;;;;;26.23;52.21;101669.44;5008316;28;1402;-77
2023/06/21 12:34:15;;;;;;;;;;;;;;;26.39;52.45;101682.28;5013941;28;1121;-77
2023/06/21 12:36:42;;;;;;;;;;;;;;;26.39;52.07;101681.47;5003427;28;1417;-77
2023/06/21 12:39:08;;;;;;;;;;;;;;;26.45;52.08;101681.47;5007707;28;1374;-78
2023/06/21 12:41:33;;;;;;;;;;;;;;;26.54;52.76;101679.41;5008941;28;1046;-76